Time;durP1;ratioP1;P1;durP2;ratioP2;P2;SDS_P1;SDS_P2;PMS_P1;PMS_P2;Temp;Humidity;BMP_temperature;BMP_pressure;BME280_temperature;BME280_humidity;BME280_pressure;Samples;Min_cycle;Max_cycle;Signal;HPM_P1;HPM_P2
2022/08/26 00:01:41;;;;;;;17.90;8.07;;;;;;;14.43;70.65;100554.31;4994205;28;20057;-40
2022/08/26 00:04:11;;;;;;;16.52;8.40;;;;;;;14.40;70.69;100556.06;4988053;28;20046;-39
2022/08/26 00:06:39;;;;;;;17.27;8.55;;;;;;;14.40;70.79;100553.44;4984154;28;20385;-38
2022/08/26 00:09:12;;;;;;;21.05;9.63;;;;;;;14.40;71.02;100561.28;4988897;28;20054;-45
2022/08/26 00:11:41;;;;;;;20.88;8.55;;;;;;;14.43;70.88;100562.13;4999503;28;20057;-39
2022/08/26 00:14:08;;;;;;;32.40;11.18;;;;;;;14.46;71.15;100564.72;4994688;28;20046;-37
2022/08/26 00:16:35;;;;;;;24.38;9.80;;;;;;;14.47;71.64;100561.22;4990775;28;20058;-41
2022/08/26 00:19:06;;;;;;;22.25;9.30;;;;;;;14.48;71.24;100557.72;4998339;28;20073;-41
2022/08/26 00:21:33;;;;;;;20.20;8.77;;;;;;;14.51;71.28;100552.50;5002274;28;20045;-37
2022/08/26 00:24:03;;;;;;;21.27;9.35;;;;;;;14.52;71.21;100554.19;4999754;28;20050;-40
2022/08/26 00:26:29;;;;;;;17.52;8.43;;;;;;;14.53;71.67;100555.94;5003040;28;20046;-37
2022/08/26 00:28:56;;;;;;;18.27;9.05;;;;;;;14.53;71.84;100555.94;5001340;28;20046;-37
2022/08/26 00:31:23;;;;;;;23.42;9.23;;;;;;;14.50;71.59;100554.25;4997514;28;20560;-42
2022/08/26 00:33:49;;;;;;;18.10;7.88;;;;;;;14.48;71.37;100553.38;4997046;28;20050;-38
2022/08/26 00:36:16;;;;;;;22.95;9.65;;;;;;;14.46;71.47;100555.13;4991207;28;20073;-38
2022/08/26 00:38:46;;;;;;;18.92;8.50;;;;;;;14.45;71.19;100550.81;4995435;28;20057;-43
2022/08/26 00:41:13;;;;;;;23.55;9.27;;;;;;;14.46;71.89;100554.28;4995345;28;20054;-39
2022/08/26 00:43:42;;;;;;;23.17;9.73;;;;;;;14.43;72.07;100554.31;4994131;28;20544;-42
2022/08/26 00:46:18;;;;;;;20.10;8.85;;;;;;;14.42;71.67;100555.19;4991719;28;20103;-43
2022/08/26 00:48:48;;;;;;;20.05;9.38;;;;;;;14.40;70.83;100556.06;4999785;28;20054;-42
2022/08/26 00:51:19;;;;;;;19.60;9.45;;;;;;;14.39;71.55;100554.34;4992744;28;20048;-38
2022/08/26 00:53:52;;;;;;;23.30;9.60;;;;;;;14.37;71.63;100556.13;4986456;28;20074;-41
2022/08/26 00:56:28;;;;;;;16.83;7.57;;;;;;;14.32;72.21;100552.69;4995226;28;20050;-37
2022/08/26 00:58:59;;;;;;;17.85;8.68;;;;;;;14.31;71.25;100555.28;4995882;28;20096;-37
2022/08/26 01:01:27;;;;;;;18.73;8.70;;;;;;;14.25;71.87;100558.81;4995718;28;20050;-41
2022/08/26 01:03:57;;;;;;;19.92;9.02;;;;;;;14.22;71.71;100556.28;4994206;28;20046;-38
2022/08/26 01:06:26;;;;;;;21.23;9.13;;;;;;;14.20;71.48;100560.63;4996993;28;20080;-41
2022/08/26 01:08:53;;;;;;;19.80;8.57;;;;;;;14.18;72.20;100559.78;4985110;28;20070;-40
2022/08/26 01:11:20;;;;;;;52.47;9.52;;;;;;;14.17;71.69;100563.25;4995257;28;20375;-40
2022/08/26 01:13:49;;;;;;;19.63;8.93;;;;;;;14.16;71.22;100558.94;4986993;28;20050;-37
2022/08/26 01:16:16;;;;;;;17.27;7.85;;;;;;;14.11;71.97;100565.03;5002166;28;20053;-41
2022/08/26 01:18:44;;;;;;;22.05;8.70;;;;;;;14.09;71.44;100563.34;4997707;28;20054;-40
2022/08/26 01:21:43;;;;;;;21.05;8.70;;;;;;;13.99;72.16;100565.16;5002677;28;20434;-38
2022/08/26 01:24:10;;;;;;;19.33;8.07;;;;;;;14.04;71.52;100567.69;4996031;28;20486;-38
2022/08/26 01:26:41;;;;;;;22.80;8.38;;;;;;;14.04;71.73;100565.97;5001140;28;20664;-40
2022/08/26 01:29:13;;;;;;;18.60;7.90;;;;;;;14.03;71.72;100565.97;5000677;28;20117;-43
2022/08/26 01:31:45;;;;;;;22.77;8.75;;;;;;;14.02;71.82;100565.13;4991198;28;20062;-41
2022/08/26 01:34:19;;;;;;;21.02;8.88;;;;;;;14.01;71.92;100563.38;4995782;28;20050;-40
2022/08/26 01:36:49;;;;;;;21.23;7.88;;;;;;;14.00;71.50;100566.88;4983064;28;20057;-40
2022/08/26 01:39:18;;;;;;;19.67;7.68;;;;;;;13.99;71.72;100570.38;4994784;28;20049;-38
2022/08/26 01:41:46;;;;;;;17.38;7.90;;;;;;;13.95;72.46;100577.31;4995414;28;20054;-38
2022/08/26 01:44:24;;;;;;;15.45;7.35;;;;;;;13.94;72.25;100575.59;4988201;28;20161;-39
2022/08/26 01:46:53;;;;;;;16.98;6.80;;;;;;;13.92;72.36;100568.69;4990374;28;20054;-41
2022/08/26 01:49:22;;;;;;;18.00;8.02;;;;;;;13.90;71.73;100575.63;4993260;28;20048;-37
2022/08/26 01:51:54;;;;;;;19.85;8.50;;;;;;;13.88;72.08;100571.31;4998340;28;20133;-43
2022/08/26 01:54:21;;;;;;;18.65;7.72;;;;;;;13.90;72.08;100570.44;4998869;28;20096;-40
2022/08/26 01:56:51;;;;;;;19.40;8.95;;;;;;;13.93;72.01;100573.00;4993606;28;20133;-40
2022/08/26 01:59:19;;;;;;;28.35;9.13;;;;;;;13.96;72.90;100565.19;4992354;28;20046;-44
2022/08/26 02:01:47;;;;;;;22.00;9.40;;;;;;;13.96;72.47;100573.88;4985071;28;20065;-42
2022/08/26 02:07:03;;;;;;;21.05;8.77;;;;;;;13.96;72.69;100580.81;5048712;27;20394;-41
2022/08/26 02:09:31;;;;;;;;;;;;;;;13.77;72.56;100574.91;5019537;28;20041;-40
2022/08/26 02:12:04;;;;;;;23.73;8.48;;;;;;;13.91;71.88;100580.00;5008804;28;19960;-40
2022/08/26 02:14:36;;;;;;;23.77;9.50;;;;;;;13.93;72.80;100580.81;5013211;28;20049;-41
2022/08/26 02:17:10;;;;;;;23.50;10.07;;;;;;;13.94;72.67;100585.16;5001289;28;20179;-38
2022/08/26 02:19:40;;;;;;;21.45;9.30;;;;;;;13.95;72.77;100573.88;5013440;28;20041;-39
2022/08/26 02:22:14;;;;;;;21.63;9.70;;;;;;;13.97;72.59;100572.09;5016620;28;20087;-38
2022/08/26 02:27:25;;;;;;;21.63;9.52;;;;;;;13.98;73.06;100573.81;5052171;28;20406;-44
2022/08/26 02:30:07;;;;;;;20.70;9.05;;;;;;;13.98;73.25;100579.03;4983127;28;20491;-39
2022/08/26 02:32:35;;;;;;;19.38;8.88;;;;;;;13.94;72.99;100577.34;4978040;28;20043;-44
2022/08/26 02:35:06;;;;;;;20.48;8.30;;;;;;;13.93;72.89;100575.63;4982701;28;20137;-44
2022/08/26 02:37:33;;;;;;;22.50;8.88;;;;;;;13.92;72.70;100576.50;4979852;28;20058;-42
2022/08/26 02:40:02;;;;;;;20.73;9.13;;;;;;;13.91;72.61;100580.84;4983152;28;20050;-42
2022/08/26 02:42:29;;;;;;;23.25;8.70;;;;;;;13.90;73.21;100580.84;4980558;28;20150;-39
2022/08/26 02:44:56;;;;;;;21.95;10.07;;;;;;;13.90;72.54;100580.84;4981917;28;20054;-42
2022/08/26 02:47:24;;;;;;;26.63;9.32;;;;;;;13.90;72.69;100576.50;4979933;28;20046;-40
2022/08/26 02:49:54;;;;;;;29.20;11.32;;;;;;;13.88;72.66;100579.13;4983217;28;20557;-43
2022/08/26 02:52:21;;;;;;;26.65;9.82;;;;;;;13.90;73.05;100580.84;4982313;28;20663;-43
2022/08/26 02:54:47;;;;;;;22.85;10.38;;;;;;;13.88;73.55;100579.13;4983595;28;20105;-39
2022/08/26 02:57:15;;;;;;;23.13;9.13;;;;;;;13.87;73.48;100582.59;4978323;28;20054;-43
2022/08/26 02:59:41;;;;;;;21.88;9.75;;;;;;;13.86;72.78;100580.00;4983703;28;20422;-40
2022/08/26 03:02:13;;;;;;;23.83;9.48;;;;;;;13.85;72.90;100573.09;4981976;28;20055;-43
2022/08/26 03:04:41;;;;;;;29.02;10.40;;;;;;;13.84;73.06;100577.41;4979711;28;20074;-41
2022/08/26 03:07:26;;;;;;;24.58;9.48;;;;;;;13.81;73.48;100580.03;4972717;28;20110;-43
2022/08/26 03:09:53;;;;;;;22.00;9.32;;;;;;;13.81;72.96;100577.44;4963729;28;20059;-43
2022/08/26 03:12:19;;;;;;;23.63;10.70;;;;;;;13.82;73.27;100578.31;4956067;28;20118;-37
2022/08/26 03:14:47;;;;;;;23.50;9.90;;;;;;;13.81;73.03;100577.44;4964582;28;20047;-38
2022/08/26 03:17:14;;;;;;;22.17;9.10;;;;;;;13.79;73.90;100576.59;4962853;28;20083;-40
2022/08/26 03:19:41;;;;;;;26.58;9.95;;;;;;;13.78;73.41;100572.25;4955002;28;20051;-39
2022/08/26 03:22:07;;;;;;;20.92;9.13;;;;;;;13.80;73.63;100567.03;4963967;28;20108;-38
2022/08/26 03:24:36;;;;;;;21.38;9.25;;;;;;;13.81;73.67;100572.22;4982800;28;20051;-37
2022/08/26 03:27:03;;;;;;;20.95;9.30;;;;;;;13.83;73.79;100575.69;4982226;28;20058;-40
2022/08/26 03:32:20;;;;;;;14.60;7.07;;;;;;;13.83;74.08;100575.69;4982080;28;20546;-38
2022/08/26 03:34:52;;;;;;;33.45;7.28;;;;;;;13.80;73.19;100570.50;4977104;28;23570;-45
2022/08/26 03:37:19;;;;;;;13.13;6.72;;;;;;;13.77;72.93;100575.72;4973961;28;20117;-42
2022/08/26 03:39:46;;;;;;;13.63;6.45;;;;;;;13.74;73.11;100570.53;4965909;28;20065;-38
2022/08/26 03:42:14;;;;;;;17.08;7.40;;;;;;;13.72;73.42;100567.09;4964479;28;20089;-38
2022/08/26 03:44:41;;;;;;;18.42;7.47;;;;;;;13.70;73.09;100568.84;4967874;28;20495;-40
2022/08/26 03:47:08;;;;;;;15.32;6.90;;;;;;;13.70;73.13;100563.63;4967946;28;21329;-37
2022/08/26 03:49:35;;;;;;;16.52;7.82;;;;;;;13.70;72.77;100566.25;4964670;28;20113;-39
2022/08/26 03:52:03;;;;;;;14.57;7.10;;;;;;;13.69;73.27;100562.78;4965124;28;20051;-40
2022/08/26 03:54:30;;;;;;;19.38;8.45;;;;;;;13.71;72.91;100554.97;4964927;28;20051;-42
2022/08/26 03:56:57;;;;;;;21.23;8.25;;;;;;;13.70;74.14;100558.44;4968693;28;20042;-42
2022/08/26 03:59:24;;;;;;;19.20;6.85;;;;;;;13.70;73.72;100548.91;4964547;28;20190;-38
2022/08/26 04:01:50;;;;;;;18.55;7.35;;;;;;;13.70;72.93;100550.63;4960612;28;20042;-41
2022/08/26 04:04:17;;;;;;;20.30;7.85;;;;;;;13.68;73.51;100549.78;4966505;28;20047;-38
2022/08/26 04:06:49;;;;;;;16.33;6.88;;;;;;;13.67;73.73;100553.25;4969239;28;20047;-39
2022/08/26 04:09:19;;;;;;;30.75;7.32;;;;;;;13.66;73.57;100551.53;4969545;28;20133;-37
2022/08/26 04:11:48;;;;;;;15.82;7.45;;;;;;;13.62;73.85;100554.13;4967053;28;20568;-36
2022/08/26 04:14:17;;;;;;;;;;;;;;;13.42;74.00;100548.19;4968423;28;20062;-41
2022/08/26 04:16:46;;;;;;;;;;;;;;;13.35;73.70;100547.38;4961872;28;20025;-41
2022/08/26 04:19:14;;;;;;;16.45;6.93;;;;;;;13.46;73.50;100540.38;4968676;28;19977;-42
2022/08/26 04:21:42;;;;;;;14.30;6.45;;;;;;;13.47;73.23;100541.22;4967014;28;20050;-43
2022/08/26 04:24:11;;;;;;;16.42;7.15;;;;;;;13.46;72.62;100542.09;4966469;28;20057;-40
2022/08/26 04:26:38;;;;;;;16.80;6.97;;;;;;;13.44;72.68;100538.66;4961562;28;20043;-39
2022/08/26 04:29:14;;;;;;;17.60;7.88;;;;;;;13.41;72.37;100544.72;4967973;28;20070;-40
2022/08/26 04:31:41;;;;;;;14.85;7.25;;;;;;;13.40;72.58;100544.75;4962931;28;20050;-42
2022/08/26 04:34:08;;;;;;;16.20;7.22;;;;;;;13.37;72.89;100536.06;4961458;28;20081;-39
2022/08/26 04:36:37;;;;;;;15.57;7.18;;;;;;;13.36;73.69;100541.28;4966594;28;20051;-42
2022/08/26 04:39:04;;;;;;;16.52;6.75;;;;;;;13.33;72.93;100549.97;4971013;28;20070;-37
2022/08/26 04:41:31;;;;;;;15.82;7.50;;;;;;;13.30;72.77;100550.00;4969537;28;20534;-38
2022/08/26 04:43:58;;;;;;;13.85;7.57;;;;;;;13.28;73.54;100546.56;4968812;28;20384;-42
2022/08/26 04:46:25;;;;;;;13.45;6.30;;;;;;;13.27;73.69;100547.41;4967249;28;20050;-38
2022/08/26 04:48:53;;;;;;;18.50;7.30;;;;;;;13.26;73.18;100548.28;4967637;28;20097;-39
2022/08/26 04:51:26;;;;;;;14.75;7.10;;;;;;;13.24;72.83;100539.59;4970008;28;20054;-39
2022/08/26 04:53:56;;;;;;;16.88;6.75;;;;;;;13.23;72.84;100545.69;4967027;28;20141;-40
2022/08/26 04:56:25;;;;;;;;;;;;;;;13.04;73.36;100543.19;4965302;28;20055;-41
2022/08/26 04:58:52;;;;;;;42.83;6.63;;;;;;;13.17;73.24;100537.94;4967671;28;19961;-42
2022/08/26 05:01:19;;;;;;;13.38;5.60;;;;;;;13.15;73.10;100544.88;4963180;28;20054;-37
2022/08/26 05:03:47;;;;;;;16.60;5.75;;;;;;;13.13;73.43;100541.44;4963566;28;20133;-38
2022/08/26 05:06:15;;;;;;;14.48;6.40;;;;;;;13.11;72.71;100539.69;4966699;28;20047;-40
2022/08/26 05:08:44;;;;;;;10.60;5.32;;;;;;;13.11;72.51;100542.28;4966913;28;20074;-41
2022/08/26 05:11:11;;;;;;;12.63;6.38;;;;;;;13.10;73.04;100543.16;4967816;28;20450;-39
2022/08/26 05:13:38;;;;;;;11.55;5.38;;;;;;;13.09;72.34;100546.66;4966892;28;20187;-36
2022/08/26 05:16:07;;;;;;;16.23;7.15;;;;;;;13.09;72.68;100546.66;4966427;28;20073;-38
2022/08/26 05:18:38;;;;;;;19.67;9.32;;;;;;;13.10;72.54;100548.38;4962292;28;20082;-40
2022/08/26 05:21:06;;;;;;;23.67;11.07;;;;;;;13.14;72.52;100553.56;4968025;28;20448;-42
2022/08/26 05:23:34;;;;;;;25.90;11.73;;;;;;;13.15;72.93;100547.47;4967779;28;20039;-42
2022/08/26 05:26:06;;;;;;;28.92;10.70;;;;;;;13.17;72.35;100546.59;4964400;28;20047;-42
2022/08/26 05:28:33;;;;;;;17.60;8.95;;;;;;;13.20;73.53;100548.31;4981076;28;20050;-42
2022/08/26 05:31:09;;;;;;;19.13;8.65;;;;;;;13.22;72.95;100551.78;4961247;28;20110;-42
2022/08/26 05:33:36;;;;;;;17.08;7.13;;;;;;;13.23;73.25;100548.28;4948381;28;20059;-42
2022/08/26 05:36:09;;;;;;;15.05;7.45;;;;;;;13.26;73.09;100545.69;4961427;28;20059;-36
2022/08/26 05:38:37;;;;;;;14.48;7.25;;;;;;;13.28;73.38;100546.56;4967837;28;20491;-38
2022/08/26 05:41:13;;;;;;;28.30;8.38;;;;;;;13.29;73.35;100552.59;4967620;28;20753;-40
2022/08/26 05:43:42;;;;;;;19.83;7.88;;;;;;;13.30;74.00;100550.00;4964876;28;20046;-41
2022/08/26 05:46:09;;;;;;;14.60;7.13;;;;;;;13.30;73.39;100544.78;4963770;28;20084;-40
2022/08/26 05:48:36;;;;;;;17.33;7.63;;;;;;;13.34;73.42;100551.69;4963846;28;20042;-42
2022/08/26 05:51:07;;;;;;;18.55;7.88;;;;;;;13.39;73.22;100556.00;4965635;28;20146;-41
2022/08/26 05:53:35;;;;;;;17.05;8.25;;;;;;;13.43;73.98;100549.91;4967614;28;20109;-38
2022/08/26 05:56:05;;;;;;;14.43;7.93;;;;;;;13.47;73.58;100543.81;4963349;28;20082;-41
2022/08/26 05:58:34;;;;;;;16.40;6.85;;;;;;;13.56;74.14;100550.72;4962895;28;20046;-40
2022/08/26 06:03:38;;;;;;;16.50;8.30;;;;;;;13.73;73.68;100555.81;5101838;27;20389;-38
2022/08/26 06:06:08;;;;;;;13.80;7.50;;;;;;;13.80;74.29;100557.50;5063497;28;20044;-40
2022/08/26 06:08:36;;;;;;;14.52;7.47;;;;;;;13.86;74.14;100560.06;5041003;28;20493;-39
2022/08/26 06:11:05;;;;;;;15.82;7.22;;;;;;;13.94;73.81;100566.91;5055137;28;20063;-39
2022/08/26 06:13:33;;;;;;;12.48;6.78;;;;;;;14.01;73.82;100563.38;5063169;28;20055;-38
2022/08/26 06:16:04;;;;;;;15.45;7.82;;;;;;;14.08;73.96;100559.84;5060827;28;20052;-38
2022/08/26 06:18:35;;;;;;;14.40;7.13;;;;;;;14.21;74.36;100571.03;5061418;28;20061;-45
2022/08/26 06:21:24;;;;;;;17.73;6.85;;;;;;;14.31;74.08;100566.59;5065852;28;20041;-37
2022/08/26 06:26:45;;;;;;;11.57;6.00;;;;;;;14.50;73.71;100566.41;5048418;28;20051;-41
2022/08/26 06:29:16;;;;;;;11.93;5.82;;;;;;;14.55;73.45;100574.19;5060344;28;20055;-40
2022/08/26 06:31:51;;;;;;;14.00;6.18;;;;;;;14.61;73.66;100574.97;5064123;28;20078;-43
2022/08/26 06:34:18;;;;;;;11.35;5.35;;;;;;;14.66;73.77;100574.94;5062826;28;20083;-39
2022/08/26 06:36:46;;;;;;;9.85;6.07;;;;;;;14.71;73.69;100574.84;5046622;28;20111;-44
2022/08/26 06:39:15;;;;;;;10.75;5.50;;;;;;;14.76;73.59;100579.13;5063488;28;20075;-43
2022/08/26 06:41:43;;;;;;;10.02;5.68;;;;;;;14.80;73.67;100579.16;5061731;28;20049;-43
2022/08/26 06:44:13;;;;;;;10.73;4.93;;;;;;;14.85;73.29;100578.22;5062911;28;20392;-38
2022/08/26 06:46:41;;;;;;;11.27;4.65;;;;;;;14.90;74.03;100581.59;5060004;28;20427;-40
2022/08/26 06:49:11;;;;;;;10.48;5.78;;;;;;;14.98;73.68;100578.03;5061418;28;20060;-43
2022/08/26 06:51:38;;;;;;;11.10;6.38;;;;;;;15.08;73.75;100578.78;5061604;28;20053;-41
2022/08/26 06:54:08;;;;;;;11.15;6.50;;;;;;;15.18;74.03;100574.31;5065525;28;20045;-41
2022/08/26 06:56:40;;;;;;;12.10;6.50;;;;;;;15.30;73.18;100579.34;5061862;28;20090;-37
2022/08/26 06:59:08;;;;;;;12.18;7.03;;;;;;;15.35;73.54;100572.34;5065027;28;20512;-46
2022/08/26 07:01:38;;;;;;;13.77;6.82;;;;;;;15.42;72.95;100574.00;5058210;28;20044;-43
2022/08/26 07:04:10;;;;;;;11.85;6.32;;;;;;;15.54;73.25;100585.13;5054943;28;20067;-43
2022/08/26 07:06:39;;;;;;;12.73;6.25;;;;;;;15.73;73.43;100577.00;5051334;28;20052;-39
2022/08/26 07:09:07;;;;;;;14.27;6.55;;;;;;;15.87;73.09;100585.47;5059649;28;20045;-43
2022/08/26 07:11:37;;;;;;;11.52;6.03;;;;;;;16.03;72.90;100585.25;5037247;28;20057;-39
2022/08/26 07:14:05;;;;;;;11.45;6.40;;;;;;;16.13;73.19;100581.63;5048122;28;20045;-41
2022/08/26 07:16:33;;;;;;;10.73;6.78;;;;;;;16.23;72.33;100586.66;5048407;28;20684;-41
2022/08/26 07:19:02;;;;;;;12.38;5.88;;;;;;;16.32;72.46;100581.28;5041164;28;20045;-40
2022/08/26 07:21:38;;;;;;;11.02;5.82;;;;;;;16.44;72.53;100577.56;5031737;28;20055;-42
2022/08/26 07:24:06;;;;;;;13.30;6.63;;;;;;;16.65;72.44;100584.13;5046769;28;20129;-39
2022/08/26 07:26:33;;;;;;;10.80;5.40;;;;;;;16.81;71.06;100594.31;5045619;28;20053;-40
2022/08/26 07:29:01;;;;;;;10.75;5.93;;;;;;;16.96;71.03;100594.00;5043620;28;20053;-41
2022/08/26 07:31:31;;;;;;;12.38;5.57;;;;;;;17.25;71.88;100593.47;5035537;28;20404;-39
2022/08/26 07:34:06;;;;;;;11.25;5.90;;;;;;;17.63;70.69;100594.31;5034596;28;20041;-41
2022/08/26 07:36:33;;;;;;;14.05;6.18;;;;;;;18.04;70.52;100593.38;5045265;28;20053;-38
2022/08/26 07:39:00;;;;;;;10.45;5.82;;;;;;;18.39;69.09;100596.88;5046150;28;20496;-43
2022/08/26 07:41:27;;;;;;;8.32;5.25;;;;;;;18.52;68.02;100594.78;5046939;28;20856;-45
2022/08/26 07:43:55;;;;;;;18.33;7.88;;;;;;;18.59;68.70;100591.09;5049042;28;20041;-42
2022/08/26 07:46:22;;;;;;;9.32;5.53;;;;;;;18.64;67.25;100604.06;5044113;28;20048;-45
2022/08/26 07:48:56;;;;;;;9.52;5.45;;;;;;;18.60;67.30;100598.03;5048464;28;20489;-38
2022/08/26 07:51:24;;;;;;;7.63;5.30;;;;;;;18.59;67.89;100600.69;5047687;28;20048;-40
2022/08/26 07:53:51;;;;;;;9.43;5.13;;;;;;;18.59;67.53;100598.94;5046864;28;20053;-43
2022/08/26 07:56:20;;;;;;;7.93;5.03;;;;;;;18.62;67.29;100605.88;5046766;28;20052;-40
2022/08/26 07:58:48;;;;;;;10.00;5.43;;;;;;;18.68;66.78;100605.69;5043617;28;20047;-41
2022/08/26 08:01:17;;;;;;;9.82;5.00;;;;;;;18.73;66.72;100610.81;5047877;28;20072;-42
2022/08/26 08:03:45;;;;;;;7.15;4.55;;;;;;;18.71;66.00;100607.38;5048588;28;20064;-45
2022/08/26 08:06:18;;;;;;;7.43;4.90;;;;;;;18.64;66.00;100609.28;5045181;28;20103;-45
2022/08/26 08:08:45;;;;;;;7.07;4.47;;;;;;;18.58;66.27;100609.47;5041958;28;20049;-41
2022/08/26 08:11:13;;;;;;;9.10;5.07;;;;;;;18.47;65.45;100609.75;5039515;28;20064;-42
2022/08/26 08:13:40;;;;;;;8.70;4.47;;;;;;;18.36;65.84;100620.53;5036323;28;20102;-45
2022/08/26 08:16:07;;;;;;;9.27;4.60;;;;;;;18.26;65.30;100619.03;5045402;28;20053;-41
2022/08/26 08:18:39;;;;;;;9.55;4.43;;;;;;;18.20;65.45;100614.81;5048142;28;20045;-40
2022/08/26 08:21:06;;;;;;;9.63;5.32;;;;;;;18.13;66.03;100614.13;5045087;28;20556;-41
2022/08/26 08:23:47;;;;;;;9.18;4.10;;;;;;;18.09;65.18;100622.97;5046393;28;20477;-41
2022/08/26 08:26:14;;;;;;;12.10;4.85;;;;;;;18.09;65.88;100612.47;5047600;28;20090;-42
2022/08/26 08:28:42;;;;;;;10.05;4.70;;;;;;;18.17;65.80;100613.13;5049059;28;20049;-40
2022/08/26 08:31:18;;;;;;;9.80;4.63;;;;;;;18.28;65.76;100617.25;5046569;28;20124;-39
2022/08/26 08:34:04;;;;;;;9.68;4.28;;;;;;;18.62;66.62;100616.38;5048512;28;20739;-41
2022/08/26 08:36:32;;;;;;;7.68;3.53;;;;;;;19.22;65.99;100616.44;5047593;28;20107;-39
2022/08/26 08:39:02;;;;;;;6.63;4.53;;;;;;;19.95;64.90;100621.19;5042439;28;20041;-42
2022/08/26 08:44:14;;;;;;;5.72;2.92;;;;;;;20.53;61.69;100617.53;5030565;27;20902;-36
2022/08/26 08:46:42;;;;;;;;;;;;;;;20.52;62.63;100615.81;5013230;28;20453;-40
2022/08/26 08:49:09;;;;;;;6.53;2.42;;;;;;;20.48;61.57;100619.47;5012059;28;19995;-41
2022/08/26 08:54:13;;;;;;;6.00;2.28;;;;;;;20.37;61.10;100621.59;5043230;28;20396;-45
2022/08/26 08:56:48;;;;;;;8.25;2.60;;;;;;;20.35;59.87;100619.03;5004202;28;20046;-41
2022/08/26 09:12:52;;;;;;;9.48;1.98;;;;;;;20.79;57.78;100613.09;5051433;28;20451;-42
2022/08/26 09:15:35;;;;;;;3.95;1.98;;;;;;;20.84;57.60;100614.69;5035866;28;20054;-40
2022/08/26 09:23:23;;;;;;;4.07;1.63;;;;;;;21.05;57.68;100600.75;5012739;28;20396;-41
2022/08/26 09:26:13;;;;;;;5.30;1.98;;;;;;;21.15;57.43;100613.59;5001030;28;20053;-42
2022/08/26 09:28:43;;;;;;;6.20;2.92;;;;;;;21.19;57.18;100612.53;4990598;28;20105;-38
2022/08/26 09:31:29;;;;;;;4.18;2.47;;;;;;;21.21;56.67;100608.06;4996298;28;20042;-40
2022/08/26 09:36:44;;;;;;;9.77;3.50;;;;;;;21.31;56.12;100604.16;5099796;27;20396;-40
2022/08/26 09:39:51;;;;;;;10.68;4.22;;;;;;;21.15;55.65;100613.59;5057655;28;20044;-40
2022/08/26 09:47:51;;;;;;;7.88;3.03;;;;;;;21.32;57.23;100594.50;5022045;27;20942;-41
2022/08/26 09:58:15;;;;;;;7.28;3.25;;;;;;;21.58;56.20;100598.72;5091382;27;20392;-37
2022/08/26 10:01:01;;;;;;;7.07;3.45;;;;;;;21.72;56.50;100597.31;5058920;28;20132;-41
2022/08/26 10:03:31;;;;;;;7.47;3.80;;;;;;;22.17;56.70;100597.25;5060002;28;20127;-39
2022/08/26 10:06:02;;;;;;;9.32;3.80;;;;;;;22.63;56.56;100590.91;5057852;28;20053;-40
2022/08/26 10:13:47;;;;;;;9.98;4.65;;;;;;;23.87;54.16;100587.75;5075325;27;20399;-40
2022/08/26 10:16:20;;;;;;;8.40;4.60;;;;;;;24.23;53.73;100587.78;5056464;28;20052;-38
2022/08/26 10:24:27;;;;;;;7.82;3.13;;;;;;;25.31;52.35;100580.28;5005442;27;20422;-45
2022/08/26 10:29:42;;;;;;;9.23;4.50;;;;;;;25.62;50.94;100589.16;5045567;27;20404;-40
2022/08/26 10:32:15;;;;;;;9.18;4.35;;;;;;;25.66;50.72;100581.88;5029457;28;20053;-44
2022/08/26 10:34:42;;;;;;;7.60;5.65;;;;;;;25.73;50.50;100582.38;5030826;28;20124;-43
2022/08/26 10:37:16;;;;;;;9.68;5.63;;;;;;;25.70;49.71;100578.09;5028735;28;20056;-45
2022/08/26 10:42:40;;;;;;;10.80;3.85;;;;;;;25.24;49.64;100566.53;5063307;28;20402;-41
2022/08/26 10:45:13;;;;;;;8.35;3.65;;;;;;;25.32;50.18;100560.78;5009409;28;20050;-40
2022/08/26 10:47:49;;;;;;;6.82;4.07;;;;;;;25.48;50.51;100571.38;5006111;28;20493;-44
2022/08/26 10:50:17;;;;;;;8.68;3.83;;;;;;;25.72;50.86;100562.09;5010151;28;20522;-44
2022/08/26 10:56:08;;;;;;;10.40;5.72;;;;;;;26.12;47.01;100554.44;5028564;27;20412;-41
2022/08/26 11:07:31;;;;;;;7.80;4.35;;;;;;;25.77;47.67;100549.44;5044260;27;20932;-41
2022/08/26 11:10:00;;;;;;;7.53;4.32;;;;;;;25.66;48.62;100542.94;5009742;28;20127;-41
2022/08/26 11:18:10;;;;;;;10.32;4.55;;;;;;;25.36;48.62;100545.56;5004432;28;20779;-44
2022/08/26 11:31:51;;;;;;;6.45;4.18;;;;;;;26.47;48.51;100534.63;5070254;27;20388;-42
2022/08/26 11:47:30;;;;;;;9.55;4.18;;;;;;;27.06;46.44;100548.72;5031132;28;20406;-43
2022/08/26 11:50:07;;;;;;;;;;;;;;;27.02;48.02;100541.91;5022883;28;20053;-39
2022/08/26 11:52:33;;;;;;;9.15;4.88;;;;;;;27.04;46.26;100547.94;5015346;28;20332;-45
2022/08/26 11:55:06;;;;;;;7.30;4.22;;;;;;;26.91;45.72;100543.41;5018130;28;20107;-39
2022/08/26 11:57:42;;;;;;;11.75;4.38;;;;;;;26.84;45.63;100542.09;5011020;28;20417;-46
2022/08/26 12:00:13;;;;;;;;;;;;;;;26.49;45.81;100539.84;5032198;28;20129;-43
2022/08/26 12:02:48;;;;;;;9.07;4.32;;;;;;;26.36;46.21;100535.31;5040492;28;20044;-41
2022/08/26 12:05:24;;;;;;;8.85;4.40;;;;;;;26.28;46.85;100533.13;5009486;28;20057;-40
2022/08/26 12:08:01;;;;;;;7.03;3.75;;;;;;;26.24;46.76;100528.09;5035342;28;20045;-39
2022/08/26 12:10:32;;;;;;;7.20;4.18;;;;;;;26.22;46.42;100532.63;5020203;28;20060;-40
2022/08/26 12:13:01;;;;;;;7.97;3.85;;;;;;;26.15;46.13;100522.41;4989433;28;20041;-41
2022/08/26 12:15:29;;;;;;;;;;;;;;;25.95;46.65;100525.38;5005020;28;20100;-40
2022/08/26 12:17:57;;;;;;;6.80;3.60;;;;;;;26.05;46.59;100521.25;5016796;28;19930;-45
2022/08/26 12:28:22;;;;;;;7.13;3.55;;;;;;;26.00;45.91;100523.34;5077065;27;20900;-43
2022/08/26 12:30:58;;;;;;;6.70;2.78;;;;;;;26.07;46.44;100513.19;5045409;28;20045;-43
2022/08/26 12:33:27;;;;;;;4.93;2.78;;;;;;;26.22;46.97;100511.38;5062184;28;20423;-47
2022/08/26 12:35:54;;;;;;;4.90;2.45;;;;;;;26.38;46.66;100522.78;5058631;28;20075;-43
2022/08/26 12:38:24;;;;;;;10.45;3.35;;;;;;;26.53;45.87;100514.81;5059017;28;20037;-47
2022/08/26 12:40:51;;;;;;;5.85;2.42;;;;;;;26.61;45.53;100517.84;5061314;28;20044;-43
2022/08/26 12:43:41;;;;;;;10.05;3.20;;;;;;;26.75;45.09;100514.28;5061394;28;20055;-45
2022/08/26 12:46:11;;;;;;;5.95;2.90;;;;;;;26.93;43.74;100512.28;5079259;28;20099;-44
2022/08/26 12:48:43;;;;;;;6.78;2.20;;;;;;;27.00;44.17;100512.75;5082341;28;20056;-44
2022/08/26 12:51:30;;;;;;;8.50;2.80;;;;;;;26.91;43.46;100516.84;5079483;28;20068;-41
2022/08/26 12:53:58;;;;;;;7.18;2.40;;;;;;;26.90;43.89;100515.13;5080216;28;20082;-44
2022/08/26 13:01:50;;;;;;;4.75;3.42;;;;;;;27.02;43.84;100523.28;5034252;27;20402;-42
2022/08/26 13:07:21;;;;;;;9.30;3.67;;;;;;;27.03;42.72;100511.72;5046507;28;20813;-43
2022/08/26 13:09:51;;;;;;;8.50;3.92;;;;;;;26.92;42.78;100512.38;5022348;28;20052;-40
2022/08/26 13:15:02;;;;;;;5.50;2.55;;;;;;;26.89;43.93;100509.91;5023942;27;20516;-39
2022/08/26 13:17:29;;;;;;;6.50;3.40;;;;;;;26.87;43.26;100510.00;5014179;28;20049;-42
2022/08/26 13:19:58;;;;;;;8.30;2.13;;;;;;;26.78;42.72;100507.97;5014427;28;20046;-40
2022/08/26 13:22:30;;;;;;;5.63;2.78;;;;;;;26.69;42.75;100499.59;5033147;28;20128;-40
2022/08/26 13:24:56;;;;;;;7.47;2.30;;;;;;;26.69;42.71;100501.41;5033070;28;20370;-44
2022/08/26 13:27:25;;;;;;;7.53;2.05;;;;;;;26.61;42.95;100491.28;5021590;28;20046;-46
2022/08/26 13:29:53;;;;;;;7.63;2.47;;;;;;;26.61;42.56;100496.59;5018888;28;20071;-41
2022/08/26 13:32:21;;;;;;;2.88;1.40;;;;;;;26.63;42.56;100489.38;5038089;28;20057;-40
2022/08/26 13:34:54;;;;;;;5.43;1.67;;;;;;;26.66;42.42;100489.19;5020654;28;20085;-40
2022/08/26 13:37:22;;;;;;;3.58;1.90;;;;;;;26.66;42.65;100489.19;5022282;28;20049;-38
2022/08/26 13:40:02;;;;;;;7.35;1.60;;;;;;;26.62;42.31;100485.03;5023244;28;20081;-42
2022/08/26 13:42:30;;;;;;;4.72;1.65;;;;;;;26.47;41.97;100486.00;5017157;28;20674;-44
2022/08/26 13:44:57;;;;;;;5.43;2.00;;;;;;;26.43;42.35;100483.53;5023053;28;20034;-39
2022/08/26 13:47:24;;;;;;;4.20;1.60;;;;;;;26.43;42.64;100486.19;5015622;28;20049;-42